Dalmatia G — ICOA — position and weather

sailwx.info

Track history (hours):
 
Tides and Currents Weather Stations Pressure Air Temp Water Temp Dewpoint Dewpoint Depression Visibility Wind Speed Wind Dir Waves Ship Positions

Dalmatia G

Last reported at 2017-Oct-01 16:10 UTC. Time now 2017-Oct-19 09:11 UTC.
Position N 25°29' W 079°33'.
Warning: this ship's position is 17 days out of date.

Length 190 m; draft 12.1 m.

Type: Cargo ship. MMSI: 247302500.

Date/timePositionNaut miles runAvg speedWind from/ knotsBaromVisibWave heightAir tempDewpointWater temp
2017-Oct-01 16:10N 25°29' W 079°33'210.9
2017-Oct-01 16:00N 25°31' W 079°33'510.9
2017-Oct-01 15:30N 25°37' W 079°33'611.1
2017-Oct-01 15:00N 25°42' W 079°32'611.0
2017-Oct-01 14:30N 25°48' W 079°32'611.0
2017-Oct-01 13:59N 25°53' W 079°31'510.8
2017-Oct-01 13:30N 25°59' W 079°31'510.7
2017-Oct-01 13:00N 26°04' W 079°30'510.6
2017-Oct-01 12:30N 26°09' W 079°30'510.6
2017-Oct-01 12:00N 26°14' W 079°29'  
2017-Sep-28 15:24N 36°46' W 075°39'1011.0
2017-Sep-28 14:27N 36°51' W 075°50'511.2
2017-Sep-28 14:00N 36°54' W 075°55'511.0
2017-Sep-28 13:30N 36°58' W 075°59'611.7
2017-Sep-28 13:00N 37°02' W 076°04'611.7
2017-Sep-28 12:28N 37°08' W 076°08'710.8
2017-Sep-28 11:49N 37°15' W 076°08'2 5.5
2017-Sep-28 11:28N 37°16' W 076°06'1 0.0
2017-Sep-26 19:58N 37°14' W 076°05'0 0.0
2017-Sep-26 19:28N 37°14' W 076°05'4 0.3
2017-Sep-26 06:08N 37°12' W 076°09'811.8
2017-Sep-26 05:28N 37°05' W 076°06'612.4
2017-Sep-26 05:00N 37°00' W 076°02'3 5.8
2017-Sep-26 04:30N 36°57' W 076°02'510.7
2017-Sep-26 04:00N 36°59' W 076°09'710.6
2017-Sep-26 03:21N 36°60' W 076°17'3 9.6
2017-Sep-26 02:59N 36°57' W 076°20'4 8.8
2017-Sep-26 02:30N 36°53' W 076°20'0 0.9
2017-Sep-26 01:58N 36°53' W 076°20'0 0.0
2017-Sep-26 01:25N 36°53' W 076°20'0 0.0
2017-Sep-26 00:58N 36°53' W 076°20'0 0.0
2017-Sep-26 00:25N 36°53' W 076°20'0 0.0
2017-Sep-25 23:58N 36°53' W 076°20'0 0.0
2017-Sep-25 23:28N 36°53' W 076°20'0 0.0
2017-Sep-25 22:58N 36°53' W 076°20'0 0.0
2017-Sep-25 22:28N 36°53' W 076°20'0 0.0
2017-Sep-25 21:58N 36°53' W 076°20'0 0.0
2017-Sep-25 21:28N 36°53' W 076°20'0 0.0
2017-Sep-25 20:37N 36°53' W 076°20'0 0.0
2017-Sep-25 20:28N 36°53' W 076°20'0 0.0
2017-Sep-25 19:58N 36°53' W 076°20'0 0.0
2017-Sep-25 19:28N 36°53' W 076°20'0 0.0
2017-Sep-25 13:34N 36°53' W 076°20'0 0.0
2017-Sep-25 13:28N 36°53' W 076°20'0 0.0
2017-Sep-25 12:58N 36°53' W 076°20'0 0.0
2017-Sep-25 12:28N 36°53' W 076°20'0 0.0
2017-Sep-25 11:58N 36°53' W 076°20'0 0.0
2017-Sep-25 11:28N 36°53' W 076°20'0 0.0
2017-Sep-25 10:37N 36°53' W 076°20'0 0.0
2017-Sep-25 10:28N 36°53' W 076°20'0 0.0
2017-Sep-25 09:55N 36°53' W 076°20'0 0.0
2017-Sep-25 09:28N 36°53' W 076°20'0 0.0
2017-Sep-25 08:55N 36°53' W 076°20'0 0.0
2017-Sep-25 08:28N 36°53' W 076°20'0 0.0
2017-Sep-25 07:58N 36°53' W 076°20'0 0.0
2017-Sep-25 07:28N 36°53' W 076°20'0 0.0
2017-Sep-25 06:58N 36°53' W 076°20'0 0.0
2017-Sep-25 06:28N 36°53' W 076°20'0 0.0
2017-Sep-25 05:58N 36°53' W 076°20'0 0.0
2017-Sep-25 05:28N 36°53' W 076°20'0 0.0
2017-Sep-25 04:58N 36°53' W 076°20'0 0.0
2017-Sep-25 04:28N 36°53' W 076°20'0 0.0
2017-Sep-25 03:58N 36°53' W 076°20'0 0.0
2017-Sep-25 03:28N 36°53' W 076°20'0 0.0
2017-Sep-25 02:58N 36°53' W 076°20'0 0.0
2017-Sep-25 02:28N 36°53' W 076°20'0 0.0
2017-Sep-25 01:55N 36°53' W 076°20'0 0.0
2017-Sep-25 01:28N 36°53' W 076°20'0 0.0
2017-Sep-25 00:58N 36°53' W 076°20'0 0.0
2017-Sep-25 00:28N 36°53' W 076°20'0 0.0
2017-Sep-24 23:58N 36°53' W 076°20'0 0.0
2017-Sep-24 23:28N 36°53' W 076°20'0 0.0
2017-Sep-24 22:58N 36°53' W 076°20'0 0.0
2017-Sep-24 22:28N 36°53' W 076°20'0 0.0
2017-Sep-24 21:58N 36°53' W 076°20'0 0.0
2017-Sep-24 21:28N 36°53' W 076°20'0 0.0
2017-Sep-24 20:58N 36°53' W 076°20'0 0.0
2017-Sep-24 20:28N 36°53' W 076°20'0 0.0
2017-Sep-24 19:58N 36°53' W 076°20'0 0.0
2017-Sep-24 19:28N 36°53' W 076°20'0 0.0
2017-Sep-24 18:58N 36°53' W 076°20'0 0.0
2017-Sep-24 18:28N 36°53' W 076°20'0 0.0
2017-Sep-24 17:58N 36°53' W 076°20'0 0.0
2017-Sep-24 17:28N 36°53' W 076°20'0 0.0
2017-Sep-24 16:58N 36°53' W 076°20'0 0.0
2017-Sep-24 16:28N 36°53' W 076°20'0 0.0
2017-Sep-24 15:58N 36°53' W 076°20'0 0.0
2017-Sep-24 15:28N 36°53' W 076°20'0 0.0
2017-Sep-24 14:58N 36°53' W 076°20'0 0.0
2017-Sep-24 14:28N 36°53' W 076°20'0 0.0
2017-Sep-24 13:58N 36°53' W 076°20'0 0.0
2017-Sep-24 13:28N 36°53' W 076°20'0 0.0
2017-Sep-24 12:58N 36°53' W 076°20'0 0.0
2017-Sep-24 12:28N 36°53' W 076°20'0 0.0
2017-Sep-24 11:58N 36°53' W 076°20'0 0.0
2017-Sep-24 11:28N 36°53' W 076°20'0 0.0
2017-Sep-24 10:58N 36°53' W 076°20'0 0.0
2017-Sep-24 10:28N 36°53' W 076°20'0 0.0
2017-Sep-24 09:52N 36°53' W 076°20'0 0.0
2017-Sep-24 09:28N 36°53' W 076°20'0 0.0
2017-Sep-24 08:55N 36°53' W 076°20'0 0.0
2017-Sep-24 08:28N 36°53' W 076°20'0 0.0
2017-Sep-24 07:58N 36°53' W 076°20'0 0.0
2017-Sep-24 07:25N 36°53' W 076°20'0 0.0
2017-Sep-24 06:58N 36°53' W 076°20'0 0.0
2017-Sep-24 06:28N 36°53' W 076°20'0 0.0
2017-Sep-24 05:58N 36°53' W 076°20'0 0.0
2017-Sep-24 05:28N 36°53' W 076°20'0 0.0
2017-Sep-24 04:55N 36°53' W 076°20'0 0.0
2017-Sep-24 04:28N 36°53' W 076°20'0 0.0
2017-Sep-24 03:58N 36°53' W 076°20'0 0.0
2017-Sep-24 03:28N 36°53' W 076°20'0 0.0
2017-Sep-24 02:58N 36°53' W 076°20'0 0.0
2017-Sep-24 02:28N 36°53' W 076°20'0 0.0
2017-Sep-24 01:58N 36°53' W 076°20'0 0.0
2017-Sep-24 01:28N 36°53' W 076°20'0 0.0
2017-Sep-24 00:58N 36°53' W 076°20'0 0.0
2017-Sep-24 00:28N 36°53' W 076°20'0 0.0
2017-Sep-23 23:58N 36°53' W 076°20'0 0.0
2017-Sep-23 23:28N 36°53' W 076°20'0 0.0
2017-Sep-23 22:58N 36°53' W 076°20'0 0.0
2017-Sep-23 22:28N 36°53' W 076°20'0 0.0
2017-Sep-23 21:58N 36°53' W 076°20'0 0.0
2017-Sep-23 21:28N 36°53' W 076°20'0 0.0
2017-Sep-23 20:58N 36°53' W 076°20'0 0.0
2017-Sep-23 20:28N 36°53' W 076°20'0 0.0
2017-Sep-23 19:58N 36°53' W 076°20'0 0.0
2017-Sep-22 01:58N 36°53' W 076°20'0 0.0
2017-Sep-22 01:28N 36°53' W 076°20'0 0.0
2017-Sep-22 00:58N 36°53' W 076°20'0 0.0
2017-Sep-22 00:25N 36°53' W 076°20'0 0.0
2017-Sep-21 23:58N 36°53' W 076°20'0 0.0
2017-Sep-21 23:30N 36°53' W 076°20'1 1.2
2017-Sep-21 23:00N 36°53' W 076°20'5 9.1
2017-Sep-21 22:30N 36°58' W 076°20'611.1
2017-Sep-21 21:55N 37°00' W 076°13'512.9
2017-Sep-21 21:30N 36°58' W 076°06'611.6
2017-Sep-21 21:00N 36°57' W 075°59'5 9.3
2017-Sep-21 20:30N 36°55' W 075°54'4 7.5
2017-Sep-21 20:00N 36°52' W 075°51'5 9.0
2017-Sep-21 19:25N 36°49' W 075°45'4 9.4
2017-Sep-21 19:00N 36°49' W 075°40'710.6
2017-Sep-21 18:22N 36°46' W 075°32'410.6
2017-Sep-21 18:00N 36°44' W 075°28'510.6
2017-Sep-21 17:30N 36°41' W 075°22'  
Track history (hours):
 
Tides and Currents Weather Stations Pressure Air Temp Water Temp Dewpoint Dewpoint Depression Visibility Wind Speed Wind Dir Waves Ship Positions

Dalmatia G

Last reported at 2017-Oct-01 16:10 UTC. Time now 2017-Oct-19 09:11 UTC.
Position N 25°29' W 079°33'.
Warning: this ship's position is 17 days out of date.

Length 190 m; draft 12.1 m.

Type: Cargo ship. MMSI: 247302500.

Date/timePositionNaut miles runAvg speedWind from/ knotsBaromVisibWave heightAir tempDewpointWater temp
2017-Oct-01 16:10N 25°29' W 079°33'210.9
2017-Oct-01 16:00N 25°31' W 079°33'510.9
2017-Oct-01 15:30N 25°37' W 079°33'611.1
2017-Oct-01 15:00N 25°42' W 079°32'611.0
2017-Oct-01 14:30N 25°48' W 079°32'611.0
2017-Oct-01 13:59N 25°53' W 079°31'510.8
2017-Oct-01 13:30N 25°59' W 079°31'510.7
2017-Oct-01 13:00N 26°04' W 079°30'510.6
2017-Oct-01 12:30N 26°09' W 079°30'510.6
2017-Oct-01 12:00N 26°14' W 079°29'  
2017-Sep-28 15:24N 36°46' W 075°39'1011.0
2017-Sep-28 14:27N 36°51' W 075°50'511.2
2017-Sep-28 14:00N 36°54' W 075°55'511.0
2017-Sep-28 13:30N 36°58' W 075°59'611.7
2017-Sep-28 13:00N 37°02' W 076°04'611.7
2017-Sep-28 12:28N 37°08' W 076°08'710.8
2017-Sep-28 11:49N 37°15' W 076°08'2 5.5
2017-Sep-28 11:28N 37°16' W 076°06'1 0.0
2017-Sep-26 19:58N 37°14' W 076°05'0 0.0
2017-Sep-26 19:28N 37°14' W 076°05'4 0.3
2017-Sep-26 06:08N 37°12' W 076°09'811.8
2017-Sep-26 05:28N 37°05' W 076°06'612.4
2017-Sep-26 05:00N 37°00' W 076°02'3 5.8
2017-Sep-26 04:30N 36°57' W 076°02'510.7
2017-Sep-26 04:00N 36°59' W 076°09'710.6
2017-Sep-26 03:21N 36°60' W 076°17'3 9.6
2017-Sep-26 02:59N 36°57' W 076°20'4 8.8
2017-Sep-26 02:30N 36°53' W 076°20'0 0.9
2017-Sep-26 01:58N 36°53' W 076°20'0 0.0
2017-Sep-26 01:25N 36°53' W 076°20'0 0.0
2017-Sep-26 00:58N 36°53' W 076°20'0 0.0
2017-Sep-26 00:25N 36°53' W 076°20'0 0.0
2017-Sep-25 23:58N 36°53' W 076°20'0 0.0
2017-Sep-25 23:28N 36°53' W 076°20'0 0.0
2017-Sep-25 22:58N 36°53' W 076°20'0 0.0
2017-Sep-25 22:28N 36°53' W 076°20'0 0.0
2017-Sep-25 21:58N 36°53' W 076°20'0 0.0
2017-Sep-25 21:28N 36°53' W 076°20'0 0.0
2017-Sep-25 20:37N 36°53' W 076°20'0 0.0
2017-Sep-25 20:28N 36°53' W 076°20'0 0.0
2017-Sep-25 19:58N 36°53' W 076°20'0 0.0
2017-Sep-25 19:28N 36°53' W 076°20'0 0.0
2017-Sep-25 13:34N 36°53' W 076°20'0 0.0
2017-Sep-25 13:28N 36°53' W 076°20'0 0.0
2017-Sep-25 12:58N 36°53' W 076°20'0 0.0
2017-Sep-25 12:28N 36°53' W 076°20'0 0.0
2017-Sep-25 11:58N 36°53' W 076°20'0 0.0
2017-Sep-25 11:28N 36°53' W 076°20'0 0.0
2017-Sep-25 10:37N 36°53' W 076°20'0 0.0
2017-Sep-25 10:28N 36°53' W 076°20'0 0.0
2017-Sep-25 09:55N 36°53' W 076°20'0 0.0
2017-Sep-25 09:28N 36°53' W 076°20'0 0.0
2017-Sep-25 08:55N 36°53' W 076°20'0 0.0
2017-Sep-25 08:28N 36°53' W 076°20'0 0.0
2017-Sep-25 07:58N 36°53' W 076°20'0 0.0
2017-Sep-25 07:28N 36°53' W 076°20'0 0.0
2017-Sep-25 06:58N 36°53' W 076°20'0 0.0
2017-Sep-25 06:28N 36°53' W 076°20'0 0.0
2017-Sep-25 05:58N 36°53' W 076°20'0 0.0
2017-Sep-25 05:28N 36°53' W 076°20'0 0.0
2017-Sep-25 04:58N 36°53' W 076°20'0 0.0
2017-Sep-25 04:28N 36°53' W 076°20'0 0.0
2017-Sep-25 03:58N 36°53' W 076°20'0 0.0
2017-Sep-25 03:28N 36°53' W 076°20'0 0.0
2017-Sep-25 02:58N 36°53' W 076°20'0 0.0
2017-Sep-25 02:28N 36°53' W 076°20'0 0.0
2017-Sep-25 01:55N 36°53' W 076°20'0 0.0
2017-Sep-25 01:28N 36°53' W 076°20'0 0.0
2017-Sep-25 00:58N 36°53' W 076°20'0 0.0
2017-Sep-25 00:28N 36°53' W 076°20'0 0.0
2017-Sep-24 23:58N 36°53' W 076°20'0 0.0
2017-Sep-24 23:28N 36°53' W 076°20'0 0.0
2017-Sep-24 22:58N 36°53' W 076°20'0 0.0
2017-Sep-24 22:28N 36°53' W 076°20'0 0.0
2017-Sep-24 21:58N 36°53' W 076°20'0 0.0
2017-Sep-24 21:28N 36°53' W 076°20'0 0.0
2017-Sep-24 20:58N 36°53' W 076°20'0 0.0
2017-Sep-24 20:28N 36°53' W 076°20'0 0.0
2017-Sep-24 19:58N 36°53' W 076°20'0 0.0
2017-Sep-24 19:28N 36°53' W 076°20'0 0.0
2017-Sep-24 18:58N 36°53' W 076°20'0 0.0
2017-Sep-24 18:28N 36°53' W 076°20'0 0.0
2017-Sep-24 17:58N 36°53' W 076°20'0 0.0
2017-Sep-24 17:28N 36°53' W 076°20'0 0.0
2017-Sep-24 16:58N 36°53' W 076°20'0 0.0
2017-Sep-24 16:28N 36°53' W 076°20'0 0.0
2017-Sep-24 15:58N 36°53' W 076°20'0 0.0
2017-Sep-24 15:28N 36°53' W 076°20'0 0.0
2017-Sep-24 14:58N 36°53' W 076°20'0 0.0
2017-Sep-24 14:28N 36°53' W 076°20'0 0.0
2017-Sep-24 13:58N 36°53' W 076°20'0 0.0
2017-Sep-24 13:28N 36°53' W 076°20'0 0.0
2017-Sep-24 12:58N 36°53' W 076°20'0 0.0
2017-Sep-24 12:28N 36°53' W 076°20'0 0.0
2017-Sep-24 11:58N 36°53' W 076°20'0 0.0
2017-Sep-24 11:28N 36°53' W 076°20'0 0.0
2017-Sep-24 10:58N 36°53' W 076°20'0 0.0
2017-Sep-24 10:28N 36°53' W 076°20'0 0.0
2017-Sep-24 09:52N 36°53' W 076°20'0 0.0
2017-Sep-24 09:28N 36°53' W 076°20'0 0.0
2017-Sep-24 08:55N 36°53' W 076°20'0 0.0
2017-Sep-24 08:28N 36°53' W 076°20'0 0.0
2017-Sep-24 07:58N 36°53' W 076°20'0 0.0
2017-Sep-24 07:25N 36°53' W 076°20'0 0.0
2017-Sep-24 06:58N 36°53' W 076°20'0 0.0
2017-Sep-24 06:28N 36°53' W 076°20'0 0.0
2017-Sep-24 05:58N 36°53' W 076°20'0 0.0
2017-Sep-24 05:28N 36°53' W 076°20'0 0.0
2017-Sep-24 04:55N 36°53' W 076°20'0 0.0
2017-Sep-24 04:28N 36°53' W 076°20'0 0.0
2017-Sep-24 03:58N 36°53' W 076°20'0 0.0
2017-Sep-24 03:28N 36°53' W 076°20'0 0.0
2017-Sep-24 02:58N 36°53' W 076°20'0 0.0
2017-Sep-24 02:28N 36°53' W 076°20'0 0.0
2017-Sep-24 01:58N 36°53' W 076°20'0 0.0
2017-Sep-24 01:28N 36°53' W 076°20'0 0.0
2017-Sep-24 00:58N 36°53' W 076°20'0 0.0
2017-Sep-24 00:28N 36°53' W 076°20'0 0.0
2017-Sep-23 23:58N 36°53' W 076°20'0 0.0
2017-Sep-23 23:28N 36°53' W 076°20'0 0.0
2017-Sep-23 22:58N 36°53' W 076°20'0 0.0
2017-Sep-23 22:28N 36°53' W 076°20'0 0.0
2017-Sep-23 21:58N 36°53' W 076°20'0 0.0
2017-Sep-23 21:28N 36°53' W 076°20'0 0.0
2017-Sep-23 20:58N 36°53' W 076°20'0 0.0
2017-Sep-23 20:28N 36°53' W 076°20'0 0.0
2017-Sep-23 19:58N 36°53' W 076°20'0 0.0
2017-Sep-22 01:58N 36°53' W 076°20'0 0.0
2017-Sep-22 01:28N 36°53' W 076°20'0 0.0
2017-Sep-22 00:58N 36°53' W 076°20'0 0.0
2017-Sep-22 00:25N 36°53' W 076°20'0 0.0
2017-Sep-21 23:58N 36°53' W 076°20'0 0.0
2017-Sep-21 23:30N 36°53' W 076°20'1 1.2
2017-Sep-21 23:00N 36°53' W 076°20'5 9.1
2017-Sep-21 22:30N 36°58' W 076°20'611.1
2017-Sep-21 21:55N 37°00' W 076°13'512.9
2017-Sep-21 21:30N 36°58' W 076°06'611.6
2017-Sep-21 21:00N 36°57' W 075°59'5 9.3
2017-Sep-21 20:30N 36°55' W 075°54'4 7.5
2017-Sep-21 20:00N 36°52' W 075°51'5 9.0
2017-Sep-21 19:25N 36°49' W 075°45'4 9.4
2017-Sep-21 19:00N 36°49' W 075°40'710.6
2017-Sep-21 18:22N 36°46' W 075°32'410.6
2017-Sep-21 18:00N 36°44' W 075°28'510.6
2017-Sep-21 17:30N 36°41' W 075°22'  

Dump ship's entire track history